x

Ilm3 - 27 Miles Se Of Wrightsville Beach, Nc (41037) Weather Station

11:08 - Sat 6th Feb 2016 All times are EST. -5 hours from GMT.

  • Wind
    20mph, 29mph gusts
  • Sea Temp 69°f
  • Ar Temp 49°f
  • Sea Pressure 1028.7mb
  • Ilm3 - 27 Miles Se Of Wrightsville Beach, Nc
  • Ilm3 - 27 Miles Se Of Wrightsville Beach, Nc

More Historic Weather Station data

Upgrade to MSW Pro to gain access to the past 30 days of data for over 8000 Wavebouys and Weather Stations around the globe.

Join Pro

Comparision Forecast

View Surf forecast
   
Sáb 02/06 11:08 20 29 mph 1028.7mb 69f 49f
10:08 18 27 mph 1028.8mb - 48f
8:08 20 29 mph 1028.5mb 69f 48f
7:08 20 27 mph 1027.9mb 69f 48f
6:08 18 25 mph 1027.6mb 69f 49f
5:08 13 22 mph 1027mb 69f 48f
4:08 13 22 mph 1027.1mb 69f 48f
3:08 11 20 mph 1028mb 69f 48f
2:08 13 20 mph 1027.9mb 69f 48f
1:08 13 25 mph 1028.2mb - 48f
Sex 02/05 11:08 16 25 mph 1028.3mb 69f 48f
10:08 13 22 mph 1028.3mb 68f 48f
9:08 16 25 mph 1027.6mb 69f 49f
8:08 16 25 mph 1026.7mb 69f 49f
7:08 16 27 mph 1026.4mb - 49f
5:08 16 25 mph 1024.5mb 68f 49f
4:08 16 25 mph 1024.8mb - 48f
2:08 20 31 mph 1023.4mb - 48f
12:08 22 29 mph 1023.8mb 64f 48f
11:08 25 36 mph 1024mb - 47f
8:08 31 43 mph 1020.9mb 64f 47f
7:08 38 54 mph 1017.7mb 64f 48f
6:08 25 38 mph 1015.3mb 64f 49f
5:08 31 40 mph 1014.3mb 64f 49f
4:08 27 38 mph 1011.8mb 64f 50f
3:08 27 38 mph 1011.4mb 64f 51f
2:08 20 27 mph 1010.9mb 62f 56f
1:08 20 31 mph 1010.2mb 61f 65f
12:08 18 25 mph 1012.6mb 60f 65f
Qui 02/04 11:08 11 18 mph 1014.2mb 61f 64f
10:08 2 9 mph 1014mb 61f 62f
9:08 2 7 mph 1013.9mb 61f 62f
8:08 7 13 mph 1014.9mb 61f 62f
7:08 11 16 mph 1014.5mb 61f 61f
6:08 13 20 mph 1015.4mb 61f 62f
5:08 16 20 mph 1015.1mb 61f 62f
4:08 13 20 mph 1014.7mb 62f 63f
3:08 11 18 mph 1015.1mb 62f 64f
2:08 16 22 mph 1016mb 62f 64f
1:08 11 18 mph 1016.4mb 62f 64f
12:08 11 18 mph 1016.3mb 63f 63f